createdAt,value
2023-01-29T00:01:20.255Z,0.50
2023-01-29T00:03:46.807Z,0.50
2023-01-29T00:06:13.383Z,0.50
2023-01-29T00:08:40.037Z,0.50
2023-01-29T00:11:08.396Z,0.50
2023-01-29T00:13:35.586Z,0.40
2023-01-29T00:16:03.026Z,0.40
2023-01-29T00:21:22.581Z,0.50
2023-01-29T00:23:50.376Z,0.60
2023-01-29T00:26:17.667Z,0.60
2023-01-29T00:28:44.429Z,0.50
2023-01-29T00:31:13.390Z,0.50
2023-01-29T00:33:40.308Z,0.40
2023-01-29T00:36:09.403Z,0.30
2023-01-29T00:38:36.934Z,0.30
2023-01-29T00:41:12.271Z,0.50
2023-01-29T00:43:38.824Z,0.40
2023-01-29T00:46:05.401Z,0.40
2023-01-29T00:48:32.254Z,0.40
2023-01-29T00:50:58.826Z,0.50
2023-01-29T00:53:25.453Z,0.40
2023-01-29T00:55:51.998Z,0.50
2023-01-29T00:58:18.533Z,0.30
2023-01-29T01:00:45.174Z,0.30
2023-01-29T01:03:11.726Z,0.40
2023-01-29T01:05:38.274Z,0.40
2023-01-29T01:08:05.097Z,0.30
2023-01-29T01:10:33.161Z,0.30
2023-01-29T01:13:05.543Z,0.30
2023-01-29T01:15:36.082Z,0.20
2023-01-29T01:18:03.925Z,0.30
2023-01-29T01:20:33.076Z,0.20
2023-01-29T01:22:59.655Z,0.20
2023-01-29T01:25:27.335Z,0.20
2023-01-29T01:27:55.609Z,0.20
2023-01-29T01:30:23.235Z,0.30
2023-01-29T01:32:49.829Z,0.30
2023-01-29T01:35:17.292Z,0.30
2023-01-29T01:37:43.890Z,0.40
2023-01-29T01:40:19.544Z,0.30
2023-01-29T01:42:57.992Z,0.20
2023-01-29T01:45:28.702Z,0.10
2023-01-29T01:48:07.354Z,0.10
2023-01-29T01:50:57.291Z,0.10
2023-01-29T01:53:32.818Z,0.10
2023-01-29T01:56:04.684Z,0.00
2023-01-29T01:58:35.575Z,0.20
2023-01-29T02:01:04.644Z,0.10
2023-01-29T02:03:34.325Z,0.20
2023-01-29T02:06:01.041Z,0.10
2023-01-29T02:08:39.562Z,0.20
2023-01-29T02:11:06.892Z,0.20
2023-01-29T02:13:33.647Z,0.10
2023-01-29T02:16:00.201Z,0.10
2023-01-29T02:18:26.794Z,0.10
2023-01-29T02:21:22.413Z,0.10
2023-01-29T02:24:11.317Z,0.10
2023-01-29T02:27:02.925Z,0.10
2023-01-29T02:29:55.142Z,0.10
2023-01-29T02:32:36.092Z,0.20
2023-01-29T02:35:05.363Z,0.20
2023-01-29T02:38:08.323Z,0.10
2023-01-29T02:40:51.190Z,0.10
2023-01-29T02:43:55.519Z,0.20
2023-01-29T02:46:35.503Z,0.20
2023-01-29T02:49:10.374Z,0.10
2023-01-29T02:51:58.530Z,0.10
2023-01-29T02:54:33.484Z,0.10
2023-01-29T02:57:14.787Z,0.10
2023-01-29T02:59:54.159Z,0.10
2023-01-29T03:02:32.120Z,0.10
2023-01-29T03:05:02.866Z,0.10
2023-01-29T03:07:37.206Z,0.10
2023-01-29T03:10:06.682Z,0.10
2023-01-29T03:12:38.029Z,0.10
2023-01-29T03:15:20.285Z,0.20
2023-01-29T03:18:13.855Z,0.20
2023-01-29T03:20:44.900Z,0.20
2023-01-29T03:23:18.973Z,0.10
2023-01-29T03:25:45.747Z,0.10
2023-01-29T03:28:15.983Z,0.10
2023-01-29T03:30:47.560Z,0.20
2023-01-29T03:33:15.980Z,0.20
2023-01-29T03:35:49.582Z,0.20
2023-01-29T03:38:16.217Z,0.20
2023-01-29T03:41:25.055Z,0.10
2023-01-29T03:44:01.015Z,0.10
2023-01-29T03:46:40.034Z,0.10
2023-01-29T03:49:19.582Z,0.10
2023-01-29T03:52:00.368Z,0.10
2023-01-29T03:55:18.118Z,0.10
2023-01-29T03:58:12.205Z,0.10
2023-01-29T04:00:44.985Z,0.10
2023-01-29T04:03:24.583Z,0.10
2023-01-29T04:06:04.197Z,0.10
2023-01-29T04:08:34.571Z,0.10
2023-01-29T04:11:08.242Z,0.10
2023-01-29T04:13:36.495Z,0.10
2023-01-29T04:16:06.951Z,0.10
2023-01-29T04:18:33.537Z,0.10
2023-01-29T04:21:01.377Z,0.00
2023-01-29T04:23:28.165Z,0.10
2023-01-29T04:26:19.435Z,0.10
2023-01-29T04:29:04.069Z,0.10
2023-01-29T04:31:38.535Z,0.10
2023-01-29T04:34:05.063Z,0.10
2023-01-29T04:37:07.540Z,0.10
2023-01-29T04:39:38.957Z,0.10
2023-01-29T04:42:19.160Z,0.10
2023-01-29T04:45:01.580Z,0.10
2023-01-29T04:47:48.367Z,0.10
2023-01-29T04:50:28.839Z,0.10
2023-01-29T04:53:19.168Z,0.00
2023-01-29T04:55:53.751Z,0.10
2023-01-29T04:58:33.819Z,0.10
2023-01-29T05:01:04.932Z,0.00
2023-01-29T05:03:34.075Z,0.00
2023-01-29T05:06:02.225Z,0.00
2023-01-29T05:08:31.296Z,0.00
2023-01-29T05:10:59.355Z,-0.10
2023-01-29T05:13:28.124Z,-0.10
2023-01-29T05:16:02.458Z,0.00
2023-01-29T05:18:29.735Z,-0.10
2023-01-29T05:20:59.727Z,0.10
2023-01-29T05:23:26.418Z,0.00
2023-01-29T05:25:53.464Z,0.00
2023-01-29T05:28:19.987Z,0.00
2023-01-29T05:30:48.931Z,0.00
2023-01-29T05:33:19.670Z,-0.10
2023-01-29T05:35:46.758Z,-0.10
2023-01-29T05:38:13.513Z,-0.10
2023-01-29T05:40:40.462Z,-0.20
2023-01-29T05:43:17.206Z,-0.20
2023-01-29T05:45:51.384Z,-0.10
2023-01-29T05:48:17.935Z,-0.10
2023-01-29T05:50:44.526Z,-0.10
2023-01-29T05:53:11.092Z,-0.10
2023-01-29T05:55:37.657Z,-0.10
2023-01-29T05:58:05.875Z,-0.10
2023-01-29T06:00:32.603Z,-0.10
2023-01-29T06:02:59.304Z,-0.10
2023-01-29T06:05:25.885Z,0.00
2023-01-29T06:07:52.506Z,0.00
2023-01-29T06:10:19.542Z,0.00
2023-01-29T06:12:46.228Z,0.00
2023-01-29T06:15:13.708Z,0.00
2023-01-29T06:17:40.501Z,0.00
2023-01-29T06:20:08.023Z,0.00
2023-01-29T06:22:34.675Z,0.00
2023-01-29T06:25:01.251Z,0.00
2023-01-29T06:27:27.820Z,0.00
2023-01-29T06:29:54.424Z,0.00
2023-01-29T06:32:21.699Z,0.00
2023-01-29T06:34:49.763Z,0.00
2023-01-29T06:37:16.406Z,0.10
2023-01-29T06:39:42.980Z,0.00
2023-01-29T06:42:09.594Z,0.00
2023-01-29T06:44:36.144Z,-0.10
2023-01-29T06:47:02.707Z,-0.10
2023-01-29T06:49:29.277Z,0.00
2023-01-29T06:51:55.871Z,0.00
2023-01-29T06:54:22.471Z,0.00
2023-01-29T06:56:49.051Z,0.00
2023-01-29T06:59:15.772Z,0.00
2023-01-29T07:01:42.457Z,0.00
2023-01-29T07:04:09.279Z,0.10
2023-01-29T07:06:36.108Z,0.00
2023-01-29T07:09:04.091Z,0.00
2023-01-29T07:11:31.069Z,0.00
2023-01-29T07:13:57.785Z,0.00
2023-01-29T07:16:24.412Z,0.00
2023-01-29T07:18:50.957Z,0.00
2023-01-29T07:21:17.499Z,0.00
2023-01-29T07:23:44.098Z,0.00
2023-01-29T07:26:11.475Z,0.00
2023-01-29T07:28:38.783Z,0.00
2023-01-29T07:31:05.856Z,0.10
2023-01-29T07:33:32.771Z,0.10
2023-01-29T07:35:59.343Z,0.10
2023-01-29T07:38:26.015Z,0.20
2023-01-29T07:40:53.426Z,0.10
2023-01-29T07:43:20.126Z,0.10
2023-01-29T07:45:46.784Z,0.10
2023-01-29T07:48:13.707Z,0.10
2023-01-29T07:50:40.715Z,0.10
2023-01-29T07:53:07.636Z,0.10
2023-01-29T07:55:34.179Z,0.10
2023-01-29T07:58:03.104Z,0.10
2023-01-29T08:00:31.329Z,0.20
2023-01-29T08:03:06.008Z,0.20
2023-01-29T08:05:33.261Z,0.20
2023-01-29T08:08:06.554Z,0.20
2023-01-29T08:10:35.305Z,0.10
2023-01-29T08:13:02.631Z,0.20
2023-01-29T08:15:30.020Z,0.20
2023-01-29T08:17:58.335Z,0.30
2023-01-29T08:20:25.473Z,0.30
2023-01-29T08:23:06.912Z,0.30
2023-01-29T08:25:34.416Z,0.30
2023-01-29T08:28:01.592Z,0.30
2023-01-29T08:30:30.821Z,0.30
2023-01-29T08:32:57.532Z,0.30
2023-01-29T08:35:24.657Z,0.30
2023-01-29T08:37:55.189Z,0.20
2023-01-29T08:40:22.357Z,0.30
2023-01-29T08:42:49.078Z,0.30
2023-01-29T08:45:15.779Z,0.30
2023-01-29T08:47:51.524Z,0.40
2023-01-29T08:50:18.351Z,0.40
2023-01-29T08:52:45.674Z,0.40
2023-01-29T08:55:13.650Z,0.40
2023-01-29T08:57:40.228Z,0.30
2023-01-29T09:00:07.908Z,0.40
2023-01-29T09:02:34.648Z,0.40
2023-01-29T09:05:01.243Z,0.50
2023-01-29T09:07:29.221Z,0.30
2023-01-29T09:09:55.817Z,0.40
2023-01-29T09:12:22.351Z,0.50
2023-01-29T09:14:49.166Z,0.50
2023-01-29T09:17:15.704Z,0.50
2023-01-29T09:19:42.269Z,0.50
2023-01-29T09:22:10.954Z,0.40
2023-01-29T09:24:38.403Z,0.40
2023-01-29T09:27:04.976Z,0.50
2023-01-29T09:29:34.683Z,0.50
2023-01-29T09:32:03.408Z,0.50
2023-01-29T09:34:29.976Z,0.50
2023-01-29T09:36:56.559Z,0.60
2023-01-29T09:39:23.116Z,0.60
2023-01-29T09:45:21.147Z,0.60
2023-01-29T09:47:47.864Z,0.60
2023-01-29T09:50:20.230Z,0.60
2023-01-29T09:52:53.089Z,0.60
2023-01-29T09:55:25.053Z,0.60
2023-01-29T09:58:00.541Z,0.60
2023-01-29T10:00:55.801Z,0.60
2023-01-29T10:03:54.585Z,0.60
2023-01-29T10:06:40.140Z,0.60
2023-01-29T10:09:29.387Z,0.50
2023-01-29T10:12:34.590Z,0.60
2023-01-29T10:15:19.985Z,0.70
2023-01-29T10:18:05.360Z,0.60
2023-01-29T10:20:31.855Z,0.60
2023-01-29T10:23:22.258Z,0.80
2023-01-29T10:25:49.528Z,0.70
2023-01-29T10:28:22.216Z,0.80
2023-01-29T10:30:51.141Z,0.70
2023-01-29T10:33:26.255Z,0.70
2023-01-29T10:35:59.790Z,0.80
2023-01-29T10:38:43.364Z,0.70
2023-01-29T10:41:39.594Z,0.90
2023-01-29T10:44:43.835Z,0.80
2023-01-29T10:47:46.362Z,0.60
2023-01-29T10:50:36.037Z,0.60
2023-01-29T10:53:26.685Z,0.60
2023-01-29T10:55:53.666Z,0.60
2023-01-29T10:58:30.621Z,0.70
2023-01-29T11:00:57.857Z,0.70
2023-01-29T11:03:29.990Z,0.60
2023-01-29T11:06:05.674Z,0.60
2023-01-29T11:08:40.089Z,0.80
2023-01-29T11:11:07.987Z,0.80
2023-01-29T11:13:57.295Z,0.70
2023-01-29T11:16:30.275Z,0.70
2023-01-29T11:18:57.718Z,0.80
2023-01-29T11:21:25.646Z,0.80
2023-01-29T11:24:06.910Z,0.90
2023-01-29T11:26:37.340Z,1.00
2023-01-29T11:29:04.014Z,1.00
2023-01-29T11:31:37.907Z,1.00
2023-01-29T11:34:19.132Z,1.00
2023-01-29T11:36:45.680Z,1.10
2023-01-29T11:39:19.080Z,1.10
2023-01-29T11:42:05.884Z,1.00
2023-01-29T11:44:34.932Z,1.00
2023-01-29T11:47:21.344Z,1.00
2023-01-29T11:50:06.381Z,1.00
2023-01-29T11:52:41.002Z,1.00
2023-01-29T11:55:18.515Z,0.80
2023-01-29T11:58:28.130Z,0.90
2023-01-29T12:00:55.936Z,0.80
2023-01-29T12:03:28.422Z,0.80
2023-01-29T12:06:08.793Z,0.80
2023-01-29T12:08:38.869Z,0.70
2023-01-29T12:11:14.757Z,0.80
2023-01-29T12:13:42.787Z,0.80
2023-01-29T12:16:15.430Z,0.90
2023-01-29T12:19:10.168Z,0.90
2023-01-29T12:22:05.471Z,1.00
2023-01-29T12:24:48.709Z,0.90
2023-01-29T12:27:29.665Z,0.90
2023-01-29T12:30:21.217Z,0.90
2023-01-29T12:33:17.524Z,0.90
2023-01-29T12:36:02.310Z,0.90
2023-01-29T12:38:28.812Z,0.90
2023-01-29T12:41:10.126Z,0.80
2023-01-29T12:43:44.936Z,0.80
2023-01-29T12:46:21.896Z,0.70
2023-01-29T12:48:50.440Z,0.70
2023-01-29T12:51:25.273Z,0.70
2023-01-29T12:54:09.044Z,0.80
2023-01-29T12:56:46.488Z,0.80
2023-01-29T12:59:37.416Z,0.80
2023-01-29T13:02:30.775Z,0.80
2023-01-29T13:05:07.293Z,0.80
2023-01-29T13:07:39.777Z,0.80
2023-01-29T13:10:15.718Z,0.80
2023-01-29T13:12:57.134Z,0.80
2023-01-29T13:15:38.060Z,0.70
2023-01-29T13:18:16.690Z,0.70
2023-01-29T13:20:44.622Z,0.70
2023-01-29T13:23:21.666Z,0.70
2023-01-29T13:25:55.010Z,0.70
2023-01-29T13:28:25.321Z,0.60
2023-01-29T13:31:14.811Z,0.70
2023-01-29T13:33:43.207Z,0.70
2023-01-29T13:36:24.755Z,0.70
2023-01-29T13:39:00.107Z,0.70
2023-01-29T13:41:42.252Z,0.70
2023-01-29T13:44:21.291Z,0.70
2023-01-29T13:47:11.358Z,0.60
2023-01-29T13:49:42.470Z,0.60
2023-01-29T13:52:35.088Z,0.60
2023-01-29T13:55:05.785Z,0.60
2023-01-29T13:57:44.353Z,0.60
2023-01-29T14:00:34.336Z,0.70
2023-01-29T14:03:00.876Z,0.80
2023-01-29T14:05:30.720Z,0.80
2023-01-29T14:08:05.532Z,0.80
2023-01-29T14:10:34.468Z,0.80
2023-01-29T14:13:03.884Z,0.80
2023-01-29T14:15:39.275Z,0.80
2023-01-29T14:18:08.943Z,0.80
2023-01-29T14:20:47.731Z,0.90
2023-01-29T14:23:37.425Z,0.70
2023-01-29T14:26:05.933Z,0.80
2023-01-29T14:28:34.754Z,0.80
2023-01-29T14:31:02.705Z,0.80
2023-01-29T14:33:41.061Z,0.80
2023-01-29T14:36:15.505Z,0.70
2023-01-29T14:38:50.000Z,0.70
2023-01-29T14:44:44.522Z,0.70
2023-01-29T14:47:41.489Z,0.70
2023-01-29T14:50:29.554Z,0.60
2023-01-29T14:53:14.656Z,0.60
2023-01-29T14:56:09.010Z,0.70
2023-01-29T14:58:41.943Z,0.70
2023-01-29T15:01:21.978Z,0.70
2023-01-29T15:03:58.502Z,0.70
2023-01-29T15:06:37.449Z,0.70
2023-01-29T15:09:07.643Z,0.70
2023-01-29T15:11:44.041Z,0.60
2023-01-29T15:14:17.880Z,0.50
2023-01-29T15:17:04.640Z,0.50
2023-01-29T15:19:57.546Z,0.50
2023-01-29T15:22:25.480Z,0.50
2023-01-29T15:25:06.307Z,0.50
2023-01-29T15:27:33.713Z,0.40
2023-01-29T15:30:04.217Z,0.50
2023-01-29T15:32:39.544Z,0.50
2023-01-29T15:35:29.532Z,0.50
2023-01-29T15:38:01.828Z,0.50
2023-01-29T15:40:28.876Z,0.50
2023-01-29T15:42:55.472Z,0.50
2023-01-29T15:48:26.312Z,0.50
2023-01-29T15:50:54.605Z,0.60
2023-01-29T15:53:30.786Z,0.50
2023-01-29T15:55:57.716Z,0.60
2023-01-29T15:58:29.617Z,0.50
2023-01-29T16:00:57.455Z,0.50
2023-01-29T16:03:26.381Z,0.60
2023-01-29T16:05:54.299Z,0.60
2023-01-29T16:08:23.439Z,0.60
2023-01-29T16:10:55.066Z,0.50
2023-01-29T16:13:24.528Z,0.50
2023-01-29T16:15:59.987Z,0.50
2023-01-29T16:18:36.442Z,0.50
2023-01-29T16:21:30.874Z,0.50
2023-01-29T16:24:10.207Z,0.40
2023-01-29T16:26:39.620Z,0.40
2023-01-29T16:29:19.304Z,0.40
2023-01-29T16:31:48.164Z,0.40
2023-01-29T16:34:28.906Z,0.40
2023-01-29T16:36:56.313Z,0.40
2023-01-29T16:39:26.915Z,0.40
2023-01-29T16:42:21.520Z,0.30
2023-01-29T16:44:56.919Z,0.30
2023-01-29T16:47:30.986Z,0.30
2023-01-29T16:50:19.023Z,0.40
2023-01-29T16:53:14.315Z,0.40
2023-01-29T16:55:44.311Z,0.30
2023-01-29T16:58:17.855Z,0.30
2023-01-29T17:00:47.935Z,0.30
2023-01-29T17:03:15.734Z,0.20
2023-01-29T17:05:42.515Z,0.30
2023-01-29T17:08:20.480Z,0.30
2023-01-29T17:10:47.877Z,0.20
2023-01-29T17:13:36.130Z,0.30
2023-01-29T17:16:24.172Z,0.20
2023-01-29T17:18:50.861Z,0.20
2023-01-29T17:21:17.595Z,0.10
2023-01-29T17:23:44.157Z,0.10
2023-01-29T17:26:13.576Z,0.10
2023-01-29T17:28:41.513Z,0.00
2023-01-29T17:31:08.522Z,0.00
2023-01-29T17:33:40.194Z,0.00
2023-01-29T17:36:13.421Z,0.00
2023-01-29T17:38:40.418Z,0.00
2023-01-29T17:41:29.987Z,0.00
2023-01-29T17:43:56.539Z,0.00
2023-01-29T17:46:23.112Z,0.00
2023-01-29T17:48:49.837Z,0.10
2023-01-29T17:51:17.774Z,0.10
2023-01-29T17:53:46.697Z,0.10
2023-01-29T17:56:21.108Z,0.10
2023-01-29T17:58:47.927Z,0.10
2023-01-29T18:01:14.628Z,0.10
2023-01-29T18:03:41.225Z,0.10
2023-01-29T18:06:09.159Z,0.10
2023-01-29T18:08:37.842Z,0.10
2023-01-29T18:11:04.567Z,0.20
2023-01-29T18:13:31.200Z,0.10
2023-01-29T18:15:57.817Z,0.10
2023-01-29T18:18:24.679Z,0.10
2023-01-29T18:20:51.243Z,0.00
2023-01-29T18:23:17.892Z,0.00
2023-01-29T18:25:45.082Z,0.00
2023-01-29T18:28:16.705Z,0.00
2023-01-29T18:30:44.565Z,0.00
2023-01-29T18:33:11.960Z,0.00
2023-01-29T18:35:38.568Z,0.00
2023-01-29T18:38:05.311Z,0.00
2023-01-29T18:40:32.930Z,0.00
2023-01-29T18:42:59.461Z,0.00
2023-01-29T18:45:26.803Z,0.00
2023-01-29T18:47:53.413Z,0.10
2023-01-29T18:50:20.177Z,0.10
2023-01-29T18:52:46.741Z,0.10
2023-01-29T18:55:13.331Z,0.10
2023-01-29T18:58:26.286Z,0.10
2023-01-29T19:00:26.397Z,0.00
2023-01-29T19:02:52.945Z,0.00
2023-01-29T19:05:19.767Z,0.00
2023-01-29T19:07:46.974Z,0.00
2023-01-29T19:10:13.580Z,0.00
2023-01-29T19:12:40.148Z,0.10
2023-01-29T19:15:07.965Z,0.00
2023-01-29T19:17:34.623Z,-0.10
2023-01-29T19:20:01.177Z,0.00
2023-01-29T19:22:31.544Z,-0.10
2023-01-29T19:24:58.127Z,-0.10
2023-01-29T19:27:24.671Z,-0.20
2023-01-29T19:29:51.537Z,-0.10
2023-01-29T19:32:19.016Z,-0.10
2023-01-29T19:34:45.662Z,-0.20
2023-01-29T19:37:12.207Z,-0.10
2023-01-29T19:39:38.746Z,-0.20
2023-01-29T19:42:05.396Z,-0.20
2023-01-29T19:44:31.985Z,-0.20
2023-01-29T19:46:58.534Z,-0.20
2023-01-29T19:49:25.842Z,-0.20
2023-01-29T19:51:52.419Z,-0.20
2023-01-29T19:54:18.971Z,-0.20
2023-01-29T19:56:45.527Z,-0.30
2023-01-29T19:59:12.108Z,-0.30
2023-01-29T20:01:38.709Z,-0.30
2023-01-29T20:04:05.295Z,-0.30
2023-01-29T20:06:31.889Z,-0.30
2023-01-29T20:08:58.596Z,-0.30
2023-01-29T20:11:26.029Z,-0.20
2023-01-29T20:13:53.004Z,-0.20
2023-01-29T20:16:20.439Z,-0.30
2023-01-29T20:18:47.125Z,-0.30
2023-01-29T20:21:16.329Z,-0.30
2023-01-29T20:23:45.053Z,-0.40
2023-01-29T20:26:16.721Z,-0.40
2023-01-29T20:28:46.036Z,-0.30
2023-01-29T20:31:12.669Z,-0.40
2023-01-29T20:33:39.823Z,-0.30
2023-01-29T20:36:09.195Z,-0.30
2023-01-29T20:38:35.935Z,-0.30
2023-01-29T20:41:15.602Z,-0.40
2023-01-29T20:43:43.110Z,-0.50
2023-01-29T20:46:10.502Z,-0.50
2023-01-29T20:48:37.696Z,-0.50
2023-01-29T20:51:05.562Z,-0.60
2023-01-29T20:53:32.350Z,-0.60
2023-01-29T20:55:58.967Z,-0.60
2023-01-29T20:58:25.729Z,-0.60
2023-01-29T21:00:53.063Z,-0.60
2023-01-29T21:03:19.830Z,-0.60
2023-01-29T21:05:46.392Z,-0.70
2023-01-29T21:08:12.958Z,-0.70
2023-01-29T21:10:39.925Z,-0.70
2023-01-29T21:13:07.207Z,-0.70
2023-01-29T21:15:33.756Z,-0.80
2023-01-29T21:18:00.418Z,-0.80
2023-01-29T21:20:27.014Z,-0.80
2023-01-29T21:22:53.582Z,-0.80
2023-01-29T21:25:20.229Z,-0.90
2023-01-29T21:27:46.788Z,-0.90
2023-01-29T21:30:13.586Z,-0.90
2023-01-29T21:32:40.149Z,-0.90
2023-01-29T21:35:07.361Z,-0.90
2023-01-29T21:37:34.033Z,-0.90
2023-01-29T21:40:00.560Z,-0.90
2023-01-29T21:42:27.134Z,-0.90
2023-01-29T21:44:53.675Z,-0.90
2023-01-29T21:47:20.241Z,-0.90
2023-01-29T21:49:46.845Z,-1.00
2023-01-29T21:52:13.967Z,-0.90
2023-01-29T21:54:41.239Z,-0.90
2023-01-29T21:57:12.405Z,-1.10
2023-01-29T21:59:39.013Z,-1.10
2023-01-29T22:02:05.748Z,-1.10
2023-01-29T22:04:32.361Z,-1.10
2023-01-29T22:06:59.059Z,-1.10
2023-01-29T22:09:25.620Z,-1.30
2023-01-29T22:11:52.168Z,-1.30
2023-01-29T22:14:18.714Z,-1.30
2023-01-29T22:16:45.659Z,-1.30
2023-01-29T22:19:13.315Z,-1.40
2023-01-29T22:21:40.446Z,-1.40
2023-01-29T22:24:07.456Z,-1.40
2023-01-29T22:26:34.590Z,-1.50
2023-01-29T22:29:01.591Z,-1.40
2023-01-29T22:31:28.389Z,-1.50
2023-01-29T22:33:54.927Z,-1.50
2023-01-29T22:36:21.468Z,-1.50
2023-01-29T22:38:47.993Z,-1.60
2023-01-29T22:41:14.576Z,-1.60
2023-01-29T22:43:41.177Z,-1.60
2023-01-29T22:46:08.628Z,-1.60
2023-01-29T22:48:35.246Z,-1.70
2023-01-29T22:51:01.874Z,-1.70
2023-01-29T22:53:28.436Z,-1.70
2023-01-29T22:55:55.199Z,-1.70
2023-01-29T22:58:21.737Z,-1.70
2023-01-29T23:00:51.378Z,-1.70
2023-01-29T23:03:17.963Z,-1.70
2023-01-29T23:05:44.529Z,-1.70
2023-01-29T23:08:11.124Z,-1.70
2023-01-29T23:10:38.139Z,-1.70
2023-01-29T23:13:04.702Z,-1.70
2023-01-29T23:15:31.290Z,-1.70
2023-01-29T23:17:57.871Z,-1.70
2023-01-29T23:20:24.440Z,-1.70
2023-01-29T23:22:51.080Z,-1.80
2023-01-29T23:25:17.633Z,-1.70
2023-01-29T23:27:44.190Z,-1.80
2023-01-29T23:30:11.262Z,-1.80
2023-01-29T23:32:38.151Z,-1.80
2023-01-29T23:35:05.086Z,-1.80
2023-01-29T23:37:31.675Z,-1.80
2023-01-29T23:39:58.236Z,-1.80
2023-01-29T23:42:24.803Z,-1.90
2023-01-29T23:44:51.358Z,-1.90
2023-01-29T23:47:17.916Z,-1.90
2023-01-29T23:49:44.447Z,-1.90
2023-01-29T23:52:11.006Z,-1.90
2023-01-29T23:54:37.561Z,-1.90
2023-01-29T23:57:04.151Z,-1.90
2023-01-29T23:59:30.744Z,-1.90
